Time;durP1;ratioP1;P1;durP2;ratioP2;P2;SDS_P1;SDS_P2;PMS_P1;PMS_P2;Temp;Humidity;BMP_temperature;BMP_pressure;BME280_temperature;BME280_humidity;BME280_pressure;Samples;Min_cycle;Max_cycle;Signal;HPM_P1;HPM_P2
2022/03/24 00:00:19;;;;;;;2.65;2.55;;;18.30;58.00;;;;;;4996364;28;20042;-12
2022/03/24 00:02:45;;;;;;;2.90;2.67;;;18.30;58.10;;;;;;4996178;28;20050;-11
2022/03/24 00:05:12;;;;;;;2.22;2.13;;;18.30;58.10;;;;;;4988374;28;20045;-13
2022/03/24 00:07:38;;;;;;;2.58;2.47;;;18.20;58.10;;;;;;4996794;28;20070;-12
2022/03/24 00:10:05;;;;;;;2.60;2.40;;;18.30;58.10;;;;;;4995615;28;20102;-13
2022/03/24 00:12:30;;;;;;;2.80;2.63;;;18.30;58.10;;;;;;4996817;28;20039;-12
2022/03/24 00:14:56;;;;;;;2.78;2.67;;;18.20;58.10;;;;;;4995653;28;20042;-12
2022/03/24 00:17:22;;;;;;;2.70;2.50;;;18.30;58.20;;;;;;4996511;28;20053;-13
2022/03/24 00:19:47;;;;;;;2.70;2.60;;;18.20;58.20;;;;;;4980271;28;20054;-12
2022/03/24 00:22:13;;;;;;;2.40;2.30;;;18.20;58.30;;;;;;4976929;28;20057;-13
2022/03/24 00:24:39;;;;;;;2.78;2.67;;;18.20;58.40;;;;;;4994498;28;20042;-13
2022/03/24 00:27:05;;;;;;;2.70;2.60;;;18.20;58.40;;;;;;4995215;28;20050;-12
2022/03/24 00:29:31;;;;;;;2.58;2.47;;;18.20;58.40;;;;;;4996315;28;20048;-12
2022/03/24 00:31:56;;;;;;;2.70;2.60;;;18.20;58.40;;;;;;4995674;28;20076;-12
2022/03/24 00:34:22;;;;;;;2.60;2.50;;;18.20;58.40;;;;;;4995341;28;20050;-12
2022/03/24 00:36:48;;;;;;;2.17;2.08;;;18.20;58.50;;;;;;4995005;28;20050;-13
2022/03/24 00:39:14;;;;;;;2.63;2.53;;;18.20;58.70;;;;;;4996331;28;20502;-13
2022/03/24 00:41:40;;;;;;;2.30;2.20;;;18.20;58.60;;;;;;4996195;28;20052;-13
2022/03/24 00:44:07;;;;;;;2.55;2.45;;;18.20;58.60;;;;;;4995135;28;21182;-12
2022/03/24 00:46:33;;;;;;;2.30;2.20;;;18.20;58.50;;;;;;4996262;28;20046;-12
2022/03/24 00:48:59;;;;;;;2.47;2.38;;;18.20;58.50;;;;;;4994752;28;20054;-12
2022/03/24 00:51:24;;;;;;;2.38;2.28;;;18.20;58.60;;;;;;4996308;28;20050;-13
2022/03/24 00:53:50;;;;;;;2.15;2.05;;;18.20;58.60;;;;;;4995356;28;20053;-13
2022/03/24 00:56:17;;;;;;;2.38;2.28;;;18.10;58.60;;;;;;4995337;28;20495;-12
2022/03/24 00:58:42;;;;;;;2.72;2.30;;;18.20;58.50;;;;;;4995414;28;20046;-12
2022/03/24 01:01:12;;;;;;;2.53;2.42;;;18.20;58.50;;;;;;4995098;28;20108;-12
2022/03/24 01:03:38;;;;;;;2.63;2.53;;;18.20;58.60;;;;;;4995330;28;20054;-13
2022/03/24 01:06:06;;;;;;;2.47;2.38;;;18.20;58.60;;;;;;4995374;28;20125;-12
2022/03/24 01:08:32;;;;;;;2.63;2.30;;;18.10;58.60;;;;;;4995830;28;20039;-13
2022/03/24 01:10:58;;;;;;;2.30;2.20;;;18.20;58.50;;;;;;4995401;28;20057;-12
2022/03/24 01:13:23;;;;;;;2.50;2.40;;;18.10;58.50;;;;;;4995263;28;20054;-13
2022/03/24 01:15:49;;;;;;;2.50;2.40;;;18.20;58.50;;;;;;4995415;28;20134;-13
2022/03/24 01:18:16;;;;;;;2.45;2.35;;;18.10;58.50;;;;;;4995258;28;20104;-12
2022/03/24 01:20:42;;;;;;;2.33;2.22;;;18.10;58.50;;;;;;4995764;28;20061;-12
2022/03/24 01:23:08;;;;;;;2.20;2.10;;;18.10;58.40;;;;;;4994448;28;20042;-12
2022/03/24 01:25:34;;;;;;;2.33;2.22;;;18.10;58.50;;;;;;4995952;28;20085;-12
2022/03/24 01:28:00;;;;;;;2.35;2.25;;;18.10;58.50;;;;;;4998203;28;20124;-12
2022/03/24 01:30:26;;;;;;;2.15;2.05;;;18.10;58.40;;;;;;4999795;28;20081;-12
2022/03/24 01:32:51;;;;;;;2.20;2.10;;;18.10;58.40;;;;;;4999096;28;20064;-13
2022/03/24 01:35:17;;;;;;;2.22;2.13;;;18.10;58.90;;;;;;4999004;28;20054;-13
2022/03/24 01:37:43;;;;;;;2.47;2.38;;;18.10;58.50;;;;;;4998984;28;20038;-13
2022/03/24 01:40:10;;;;;;;2.38;2.28;;;18.10;58.50;;;;;;4998969;28;20054;-12
2022/03/24 01:42:36;;;;;;;2.30;2.20;;;18.10;58.40;;;;;;4983169;28;20050;-12
2022/03/24 01:45:02;;;;;;;2.53;2.42;;;18.10;58.40;;;;;;4979639;28;20039;-12
2022/03/24 01:47:28;;;;;;;2.33;2.22;;;18.10;58.40;;;;;;4990311;28;20042;-12
2022/03/24 01:49:58;;;;;;;2.70;2.50;;;18.00;58.40;;;;;;4998823;28;20050;-12
2022/03/24 01:52:24;;;;;;;2.78;2.67;;;18.00;58.40;;;;;;4999262;28;20046;-12
2022/03/24 01:54:52;;;;;;;2.33;2.22;;;18.10;58.40;;;;;;4982978;28;20109;-12
2022/03/24 01:57:17;;;;;;;2.50;2.40;;;18.00;58.40;;;;;;4991177;28;20151;-11
2022/03/24 01:59:43;;;;;;;2.42;2.33;;;18.00;58.40;;;;;;4998408;28;20045;-12
2022/03/24 02:02:09;;;;;;;2.38;2.20;;;18.00;58.50;;;;;;4998163;28;20488;-12
2022/03/24 02:04:35;;;;;;;2.25;2.15;;;18.00;58.50;;;;;;4999190;28;20042;-13
2022/03/24 02:07:05;;;;;;;2.20;2.10;;;18.00;58.50;;;;;;4998329;28;20133;-12
2022/03/24 02:09:31;;;;;;;2.13;2.03;;;17.90;58.50;;;;;;4987419;28;20058;-13
2022/03/24 02:11:57;;;;;;;2.47;2.38;;;18.00;58.60;;;;;;4978946;28;20043;-12
2022/03/24 02:14:22;;;;;;;2.50;2.40;;;18.00;58.40;;;;;;4979368;28;20047;-13
2022/03/24 02:16:48;;;;;;;2.40;2.30;;;18.00;58.50;;;;;;4992870;28;20510;-12
2022/03/24 02:19:18;;;;;;;2.42;2.33;;;18.00;58.40;;;;;;4997699;28;20179;-13
2022/03/24 02:21:45;;;;;;;2.15;2.05;;;18.10;58.40;;;;;;4997592;28;20133;-12
2022/03/24 02:24:15;;;;;;;2.40;2.30;;;18.00;58.40;;;;;;4996959;28;20049;-12
2022/03/24 02:26:42;;;;;;;2.25;2.15;;;18.00;58.50;;;;;;4982828;28;20066;-13
2022/03/24 02:29:10;;;;;;;2.55;2.45;;;18.00;58.60;;;;;;4986931;28;20073;-12
2022/03/24 02:31:40;;;;;;;2.60;2.33;;;18.00;58.50;;;;;;4997361;28;20470;-12
2022/03/24 02:36:51;;;;;;;2.42;2.33;;;18.00;58.50;;;;;;4997018;28;20454;-12
2022/03/24 02:39:17;;;;;;;2.15;2.05;;;18.00;58.50;;;;;;4996593;28;20046;-13
2022/03/24 02:41:53;;;;;;;2.50;2.40;;;18.00;58.50;;;;;;4995514;28;20055;-12
2022/03/24 02:44:19;;;;;;;2.60;2.50;;;18.00;58.40;;;;;;4997034;28;20050;-12
2022/03/24 02:46:48;;;;;;;2.30;2.20;;;18.00;58.40;;;;;;4995415;28;20085;-12
2022/03/24 02:49:15;;;;;;;2.45;2.35;;;18.00;58.40;;;;;;4996551;28;20185;-13
2022/03/24 02:51:40;;;;;;;2.15;2.05;;;18.00;58.40;;;;;;4997175;28;20491;-13
2022/03/24 02:54:06;;;;;;;2.15;2.05;;;18.00;58.50;;;;;;4996632;28;20503;-12
2022/03/24 02:56:32;;;;;;;2.05;1.95;;;18.00;58.50;;;;;;4996687;28;20050;-12
2022/03/24 02:58:57;;;;;;;2.25;2.15;;;17.90;58.40;;;;;;4996212;28;20061;-12
2022/03/24 03:01:27;;;;;;;2.25;2.15;;;17.90;58.50;;;;;;4997017;28;20077;-12
2022/03/24 03:03:53;;;;;;;2.10;2.00;;;18.00;58.50;;;;;;4996540;28;20125;-13
2022/03/24 03:06:19;;;;;;;2.17;2.08;;;17.90;58.40;;;;;;4977503;28;20071;-12
2022/03/24 03:08:46;;;;;;;2.28;2.17;;;18.00;58.40;;;;;;4977414;28;20047;-12
2022/03/24 03:11:12;;;;;;;2.33;2.22;;;18.00;58.40;;;;;;4976741;28;20081;-13
2022/03/24 03:13:37;;;;;;;2.17;2.08;;;17.90;58.40;;;;;;4977795;28;20051;-12
2022/03/24 03:16:04;;;;;;;2.10;2.00;;;17.90;58.40;;;;;;4977207;28;20508;-12
2022/03/24 03:18:32;;;;;;;2.72;2.63;;;17.90;58.40;;;;;;4977215;28;20133;-12
2022/03/24 03:20:59;;;;;;;2.22;2.13;;;17.90;58.40;;;;;;4942203;28;1141903;-12
2022/03/24 03:23:24;;;;;;;2.15;2.05;;;17.90;58.30;;;;;;4997075;28;20508;-12
2022/03/24 03:25:50;;;;;;;2.35;2.25;;;17.90;58.30;;;;;;4997486;28;20439;-12
2022/03/24 03:28:15;;;;;;;1.95;1.85;;;17.90;58.30;;;;;;4996086;28;20058;-12
2022/03/24 03:30:43;;;;;;;2.10;2.00;;;17.90;58.40;;;;;;4997593;28;20047;-12
2022/03/24 03:33:08;;;;;;;1.80;1.70;;;17.90;58.40;;;;;;4996570;28;20422;-12
2022/03/24 03:35:34;;;;;;;2.30;2.20;;;17.90;58.30;;;;;;4997503;28;20049;-12
2022/03/24 03:38:00;;;;;;;2.10;2.00;;;17.90;58.20;;;;;;4996107;28;20047;-12
2022/03/24 03:40:25;;;;;;;2.00;1.90;;;17.90;58.30;;;;;;4997400;28;20072;-12
2022/03/24 03:42:52;;;;;;;2.10;2.00;;;17.90;58.20;;;;;;4991034;28;20066;-13
2022/03/24 03:45:18;;;;;;;2.10;2.00;;;17.90;58.30;;;;;;4977361;28;20061;-12
2022/03/24 03:47:44;;;;;;;2.22;2.13;;;17.90;58.30;;;;;;4977536;28;20043;-12
2022/03/24 03:50:09;;;;;;;2.10;2.00;;;17.90;58.30;;;;;;4976848;28;20039;-12
2022/03/24 03:52:36;;;;;;;1.95;1.85;;;17.80;58.30;;;;;;4977739;28;20511;-12
2022/03/24 03:55:02;;;;;;;2.00;1.90;;;17.90;58.30;;;;;;4977678;28;20086;-12
2022/03/24 03:57:28;;;;;;;2.10;2.00;;;17.90;58.20;;;;;;4983767;28;20045;-12
2022/03/24 03:59:53;;;;;;;2.50;2.40;;;17.90;58.20;;;;;;4996937;28;20046;-12
2022/03/24 04:02:19;;;;;;;1.98;1.88;;;17.90;58.30;;;;;;4996188;28;20129;-13
2022/03/24 04:04:45;;;;;;;2.20;2.10;;;17.80;58.30;;;;;;4981126;28;20057;-13
2022/03/24 04:07:11;;;;;;;2.10;2.00;;;17.80;58.30;;;;;;4976729;28;20069;-12
2022/03/24 04:09:37;;;;;;;2.17;2.08;;;17.80;58.30;;;;;;4977303;28;20042;-12
2022/03/24 04:12:03;;;;;;;2.22;2.13;;;17.80;58.40;;;;;;4977164;28;20060;-12
2022/03/24 04:14:28;;;;;;;1.98;1.88;;;17.80;58.40;;;;;;4977407;28;20686;-13
2022/03/24 04:16:57;;;;;;;2.13;2.03;;;17.80;58.40;;;;;;4979478;28;20780;-12
2022/03/24 04:19:24;;;;;;;2.00;1.90;;;17.80;58.40;;;;;;4995901;28;20058;-12
2022/03/24 04:21:49;;;;;;;2.25;2.15;;;17.80;58.30;;;;;;4995842;28;20046;-12
2022/03/24 04:24:15;;;;;;;2.10;2.00;;;17.80;58.30;;;;;;4995946;28;20046;-12
2022/03/24 04:26:40;;;;;;;2.30;2.20;;;17.80;58.30;;;;;;4996627;28;20039;-11
2022/03/24 04:29:06;;;;;;;2.20;2.10;;;17.80;58.20;;;;;;4994556;28;20132;-12
2022/03/24 04:31:32;;;;;;;2.45;2.35;;;17.80;58.30;;;;;;4976994;28;20047;-12
2022/03/24 04:33:58;;;;;;;2.28;2.17;;;17.80;58.40;;;;;;4976903;28;20049;-13
2022/03/24 04:36:23;;;;;;;2.20;2.10;;;17.80;58.30;;;;;;4976332;28;20043;-12
2022/03/24 04:38:49;;;;;;;2.05;1.95;;;17.70;58.30;;;;;;4995184;28;20069;-12
2022/03/24 04:41:14;;;;;;;2.10;2.00;;;17.70;58.40;;;;;;4995609;28;20042;-13
2022/03/24 04:43:40;;;;;;;2.35;2.25;;;17.70;58.40;;;;;;4977903;28;20070;-12
2022/03/24 04:46:05;;;;;;;2.20;2.10;;;17.70;58.30;;;;;;4976310;28;20043;-12
2022/03/24 04:48:35;;;;;;;2.10;2.00;;;17.70;58.40;;;;;;4995237;28;20411;-12
2022/03/24 04:51:03;;;;;;;2.03;1.92;;;17.70;58.20;;;;;;4995491;28;20038;-12
2022/03/24 04:53:29;;;;;;;2.38;2.28;;;17.70;58.30;;;;;;4995551;28;20047;-12
2022/03/24 04:55:55;;;;;;;2.13;2.03;;;17.70;58.30;;;;;;4996100;28;20046;-12
2022/03/24 04:58:20;;;;;;;2.17;2.08;;;17.70;58.30;;;;;;4995457;28;20038;-12
2022/03/24 05:00:46;;;;;;;2.50;2.40;;;17.70;58.40;;;;;;4995500;28;20074;-12
2022/03/24 05:03:12;;;;;;;2.25;2.15;;;17.70;58.30;;;;;;4995347;28;20125;-12
2022/03/24 05:05:37;;;;;;;1.90;1.80;;;17.70;58.20;;;;;;4995843;28;20046;-12
2022/03/24 05:08:03;;;;;;;2.20;2.10;;;17.70;58.30;;;;;;4995260;28;20372;-13
2022/03/24 05:10:29;;;;;;;2.25;2.15;;;17.70;58.20;;;;;;4985769;28;20053;-12
2022/03/24 05:12:55;;;;;;;2.20;2.10;;;17.70;58.30;;;;;;4975967;28;20121;-12
2022/03/24 05:15:20;;;;;;;1.90;1.80;;;17.70;58.30;;;;;;4975177;28;20035;-12
2022/03/24 05:17:46;;;;;;;2.00;1.90;;;17.70;58.20;;;;;;4976318;28;20381;-12
2022/03/24 05:20:12;;;;;;;1.98;1.88;;;17.70;58.20;;;;;;4975968;28;20459;-12
2022/03/24 05:22:37;;;;;;;2.10;2.00;;;17.70;58.30;;;;;;4975980;28;20044;-12
2022/03/24 05:25:03;;;;;;;2.17;2.08;;;17.70;58.20;;;;;;4991661;28;20125;-12
2022/03/24 05:27:29;;;;;;;2.03;1.92;;;17.70;58.30;;;;;;4982234;28;20038;-14
2022/03/24 05:29:55;;;;;;;2.10;2.00;;;17.70;58.30;;;;;;4993669;28;20074;-14
2022/03/24 05:32:20;;;;;;;2.30;2.20;;;17.60;58.30;;;;;;4994520;28;20185;-12
2022/03/24 05:34:46;;;;;;;1.85;1.75;;;17.70;58.30;;;;;;4995783;28;20474;-13
2022/03/24 05:37:13;;;;;;;2.13;2.03;;;17.60;58.40;;;;;;4994240;28;20462;-12
2022/03/24 05:39:38;;;;;;;2.05;1.95;;;17.60;58.40;;;;;;4995221;28;20042;-12
2022/03/24 05:42:04;;;;;;;2.05;1.95;;;17.60;58.40;;;;;;4994944;28;20050;-12
2022/03/24 05:44:30;;;;;;;1.95;1.85;;;17.60;58.30;;;;;;4989995;28;20145;-12
2022/03/24 05:46:56;;;;;;;2.20;2.10;;;17.60;58.30;;;;;;4995601;28;20039;-12
2022/03/24 05:49:22;;;;;;;2.30;2.20;;;17.60;58.30;;;;;;4994117;28;20533;-12
2022/03/24 05:51:47;;;;;;;2.10;2.00;;;17.60;58.40;;;;;;4993343;28;20075;-12
2022/03/24 05:54:15;;;;;;;2.20;2.10;;;17.60;58.40;;;;;;4994419;28;20117;-12
2022/03/24 05:56:41;;;;;;;2.40;2.30;;;17.60;58.30;;;;;;4992809;28;20104;-11
2022/03/24 05:59:07;;;;;;;2.30;2.20;;;17.60;58.30;;;;;;4978667;28;20051;-12
2022/03/24 06:01:33;;;;;;;2.33;2.22;;;17.60;58.30;;;;;;4984834;28;20106;-13
2022/03/24 06:03:59;;;;;;;2.40;2.20;;;17.60;58.40;;;;;;4984641;28;20050;-12
2022/03/24 06:06:28;;;;;;;2.40;2.30;;;17.60;58.40;;;;;;4981816;28;20156;-12
2022/03/24 06:08:54;;;;;;;3.75;2.40;;;17.60;58.90;;;;;;4985932;28;20053;-12
2022/03/24 06:11:20;;;;;;;2.40;2.30;;;17.60;58.60;;;;;;4982998;28;20081;-13
2022/03/24 06:13:46;;;;;;;2.38;2.17;;;17.60;60.40;;;;;;4640788;28;10000618;-12
2022/03/24 06:16:13;;;;;;;2.15;2.05;;;17.60;61.70;;;;;;4997131;28;20053;-12
2022/03/24 06:18:39;;;;;;;2.95;2.58;;;17.60;61.30;;;;;;5000031;28;20056;-12
2022/03/24 06:21:05;;;;;;;2.15;2.05;;;17.60;60.00;;;;;;4993711;28;20055;-17
2022/03/24 06:23:31;;;;;;;2.42;2.28;;;17.60;60.30;;;;;;4990141;28;20066;-12
2022/03/24 06:25:57;;;;;;;2.53;2.33;;;17.60;60.40;;;;;;4997616;28;20177;-12
2022/03/24 06:28:22;;;;;;;2.30;2.20;;;17.60;60.00;;;;;;4994185;28;20038;-12
2022/03/24 06:30:48;;;;;;;2.45;2.20;;;17.70;59.90;;;;;;4996350;28;20034;-12
2022/03/24 06:33:16;;;;;;;5.50;2.45;;;17.70;59.60;;;;;;4994005;28;20054;-12
2022/03/24 06:35:45;;;;;;;2.65;2.28;;;17.60;59.60;;;;;;4991885;28;20038;-12
2022/03/24 06:38:11;;;;;;;3.08;2.10;;;17.60;59.60;;;;;;4996965;28;20057;-12
2022/03/24 06:40:38;;;;;;;2.47;2.38;;;17.60;59.40;;;;;;4997243;28;20110;-12
2022/03/24 06:43:05;;;;;;;2.95;2.60;;;17.70;59.80;;;;;;4995289;28;20316;-12
2022/03/24 06:45:32;;;;;;;3.25;2.33;;;17.70;60.40;;;;;;4992912;28;20048;-11
2022/03/24 06:47:57;;;;;;;3.50;2.70;;;17.70;60.50;;;;;;4988190;28;20074;-12
2022/03/24 06:50:23;;;;;;;5.00;2.35;;;17.60;61.20;;;;;;4996445;28;20081;-12
2022/03/24 06:52:48;;;;;;;2.60;2.40;;;17.70;62.00;;;;;;4997381;28;20498;-13
2022/03/24 06:55:14;;;;;;;3.20;2.90;;;17.70;61.70;;;;;;4993633;28;20099;-13
2022/03/24 06:57:41;;;;;;;3.90;2.70;;;17.60;61.80;;;;;;4991162;28;20051;-12
2022/03/24 07:00:07;;;;;;;3.90;2.53;;;17.60;61.60;;;;;;4994149;28;20100;-12
2022/03/24 07:02:32;;;;;;;4.40;2.30;;;17.60;61.70;;;;;;4996991;28;20519;-12
2022/03/24 07:04:58;;;;;;;2.30;2.13;;;17.60;61.70;;;;;;4990747;28;20428;-12
2022/03/24 07:07:26;;;;;;;2.33;2.03;;;17.60;61.50;;;;;;4977393;28;20050;-12
2022/03/24 07:09:52;;;;;;;2.30;2.10;;;17.60;61.40;;;;;;4978404;28;20047;-13
2022/03/24 07:12:21;;;;;;;2.25;2.15;;;17.60;61.50;;;;;;4978098;28;20050;-13
2022/03/24 07:14:47;;;;;;;4.00;2.60;;;17.60;61.10;;;;;;4989759;28;20499;-13
2022/03/24 07:17:14;;;;;;;2.03;1.92;;;17.60;61.10;;;;;;4989201;28;20475;-11
2022/03/24 07:19:40;;;;;;;2.72;2.28;;;17.60;61.30;;;;;;4983629;28;20055;-13
2022/03/24 07:22:05;;;;;;;2.45;2.25;;;17.60;61.20;;;;;;4987244;28;20137;-12
2022/03/24 07:24:31;;;;;;;2.50;1.90;;;17.60;61.00;;;;;;4991204;28;20132;-12
2022/03/24 07:26:57;;;;;;;4.07;2.40;;;17.60;60.80;;;;;;4996634;28;20051;-12
2022/03/24 07:29:24;;;;;;;2.90;2.13;;;17.60;60.70;;;;;;4994470;28;20042;-12
2022/03/24 07:31:49;;;;;;;2.83;2.63;;;17.70;60.70;;;;;;4983832;28;20046;-12
2022/03/24 07:34:16;;;;;;;4.05;2.25;;;17.60;60.60;;;;;;4976845;28;20039;-12
2022/03/24 07:36:42;;;;;;;2.58;2.30;;;17.60;60.60;;;;;;4992108;28;20090;-11
2022/03/24 07:39:07;;;;;;;4.28;2.80;;;17.60;60.40;;;;;;4979076;28;20047;-12
2022/03/24 07:41:34;;;;;;;2.75;2.25;;;17.60;60.30;;;;;;5009907;28;20136;-12
2022/03/24 07:43:59;;;;;;;2.50;2.38;;;17.70;60.40;;;;;;4997322;28;20042;-13
2022/03/24 07:46:25;;;;;;;2.58;2.38;;;17.60;61.20;;;;;;4990471;28;20052;-12
2022/03/24 07:48:51;;;;;;;2.30;2.17;;;17.70;60.40;;;;;;4987159;28;20116;-12
2022/03/24 07:51:18;;;;;;;2.67;2.47;;;17.60;60.20;;;;;;4989122;28;20054;-12
2022/03/24 07:53:47;;;;;;;2.50;2.30;;;17.70;60.10;;;;;;4987085;28;20121;-12
2022/03/24 07:56:13;;;;;;;2.58;2.47;;;17.70;60.10;;;;;;4995340;28;20531;-15
2022/03/24 07:58:39;;;;;;;2.30;2.20;;;17.70;59.90;;;;;;4996976;28;20038;-13
2022/03/24 08:01:06;;;;;;;3.15;2.40;;;17.70;59.90;;;;;;4991977;28;20105;-13
2022/03/24 08:03:31;;;;;;;2.50;2.30;;;17.70;60.00;;;;;;4976463;28;20043;-12
2022/03/24 08:05:57;;;;;;;2.20;2.10;;;17.70;60.00;;;;;;4983793;28;20100;-12
2022/03/24 08:08:23;;;;;;;2.80;2.60;;;17.70;60.00;;;;;;4995052;28;20053;-13
2022/03/24 08:10:49;;;;;;;2.38;2.17;;;17.70;59.90;;;;;;5008141;28;20557;-12
2022/03/24 08:13:16;;;;;;;3.53;2.40;;;17.70;60.00;;;;;;4996972;28;20210;-12
2022/03/24 08:15:42;;;;;;;2.85;2.20;;;17.70;59.90;;;;;;5016292;28;20046;-11
2022/03/24 08:18:09;;;;;;;2.20;2.10;;;17.70;59.80;;;;;;5012692;28;20518;-11
2022/03/24 08:20:35;;;;;;;2.17;2.00;;;17.70;59.80;;;;;;5009560;28;20054;-12
2022/03/24 08:23:02;;;;;;;3.03;2.10;;;17.70;59.90;;;;;;4984727;28;20038;-13
2022/03/24 08:25:27;;;;;;;2.72;2.55;;;17.70;59.80;;;;;;4976893;28;20042;-12
2022/03/24 08:27:53;;;;;;;3.50;2.20;;;17.70;59.80;;;;;;4991590;28;20673;-12
2022/03/24 08:30:18;;;;;;;2.33;2.15;;;17.70;59.80;;;;;;4995152;28;20042;-12
2022/03/24 08:32:44;;;;;;;3.47;2.47;;;17.70;59.70;;;;;;4985596;28;20050;-13
2022/03/24 08:35:10;;;;;;;2.55;2.35;;;17.70;59.80;;;;;;4980460;28;20042;-13
2022/03/24 08:37:35;;;;;;;2.50;2.30;;;17.70;59.70;;;;;;4994940;28;20048;-12
2022/03/24 08:40:01;;;;;;;2.10;2.00;;;17.70;59.80;;;;;;4992844;28;20407;-11
2022/03/24 08:42:27;;;;;;;2.25;2.15;;;17.80;59.90;;;;;;4994750;28;20038;-12
2022/03/24 08:44:53;;;;;;;2.00;1.90;;;17.70;59.80;;;;;;4993564;28;20058;-12
2022/03/24 08:47:18;;;;;;;2.15;2.00;;;17.80;59.70;;;;;;4985015;28;20151;-12
2022/03/24 08:49:45;;;;;;;2.45;2.25;;;17.80;59.60;;;;;;4994521;28;20232;-13
2022/03/24 08:52:10;;;;;;;2.60;2.40;;;17.80;59.50;;;;;;4985577;28;20074;-12
2022/03/24 08:54:36;;;;;;;2.13;2.03;;;17.80;59.30;;;;;;4995196;28;20108;-13
2022/03/24 08:57:02;;;;;;;2.97;2.70;;;17.80;59.00;;;;;;4995792;28;20042;-12
2022/03/24 08:59:27;;;;;;;2.03;1.92;;;17.80;59.00;;;;;;4985860;28;20518;-12
2022/03/24 09:01:53;;;;;;;2.10;2.00;;;17.80;59.00;;;;;;4977624;28;20043;-12
2022/03/24 09:04:20;;;;;;;2.58;2.38;;;17.80;59.00;;;;;;4993723;28;20423;-12
2022/03/24 09:06:46;;;;;;;2.40;2.20;;;17.80;59.00;;;;;;4995380;28;20038;-12
2022/03/24 09:09:12;;;;;;;2.83;2.63;;;17.80;59.00;;;;;;4983358;28;20454;-13
2022/03/24 09:11:37;;;;;;;2.10;2.00;;;17.90;58.90;;;;;;4994137;28;20132;-13
2022/03/24 09:14:03;;;;;;;2.50;2.30;;;17.90;59.00;;;;;;4995436;28;20047;-12
2022/03/24 09:16:29;;;;;;;2.00;1.90;;;17.90;59.00;;;;;;4995002;28;20038;-12
2022/03/24 09:18:54;;;;;;;1.85;1.75;;;17.90;59.30;;;;;;4992766;28;20050;-13
2022/03/24 09:21:20;;;;;;;2.05;1.95;;;17.90;59.40;;;;;;4994265;28;20081;-13
2022/03/24 09:23:46;;;;;;;2.03;1.92;;;17.90;59.60;;;;;;4986574;28;20504;-13
2022/03/24 09:26:12;;;;;;;1.80;1.70;;;17.90;59.80;;;;;;4984812;28;20047;-12
2022/03/24 09:28:38;;;;;;;1.88;1.77;;;17.90;59.70;;;;;;4980477;28;30489;-13
2022/03/24 09:31:03;;;;;;;1.80;1.70;;;17.90;59.70;;;;;;4994026;28;20105;-12
2022/03/24 09:33:29;;;;;;;1.67;1.58;;;17.90;59.70;;;;;;4983751;28;20051;-13
2022/03/24 09:35:55;;;;;;;2.33;2.00;;;17.90;59.70;;;;;;4990218;28;20453;-12
2022/03/24 09:38:20;;;;;;;1.70;1.70;;;18.00;59.50;;;;;;4975332;28;20412;-12
2022/03/24 09:40:46;;;;;;;2.33;2.17;;;18.00;59.50;;;;;;4989129;28;20221;-13
2022/03/24 09:43:15;;;;;;;1.95;1.85;;;18.00;59.40;;;;;;4994647;28;20092;-12
2022/03/24 09:45:42;;;;;;;1.75;1.65;;;18.00;59.40;;;;;;4993725;28;20514;-13
2022/03/24 09:48:10;;;;;;;2.20;2.10;;;18.00;59.20;;;;;;4978192;28;20070;-12
2022/03/24 09:50:36;;;;;;;1.98;1.88;;;18.10;59.10;;;;;;4984530;28;20129;-13
2022/03/24 09:53:02;;;;;;;3.30;2.00;;;18.10;59.10;;;;;;4998945;28;20038;-12
2022/03/24 09:55:32;;;;;;;2.10;1.60;;;18.10;58.90;;;;;;4996761;28;20133;-12
2022/03/24 09:57:58;;;;;;;2.20;2.10;;;18.10;58.80;;;;;;4995947;28;20376;-12
2022/03/24 10:00:25;;;;;;;2.08;1.98;;;18.10;58.80;;;;;;4990094;28;20042;-12
2022/03/24 10:03:14;;;;;;;2.45;2.05;;;18.20;58.70;;;;;;4992247;28;20131;-13
2022/03/24 10:06:00;;;;;;;1.80;1.70;;;18.20;58.60;;;;;;4998178;28;20049;-12
2022/03/24 10:08:26;;;;;;;2.15;2.05;;;18.20;58.40;;;;;;4991683;28;20062;-12
2022/03/24 10:11:06;;;;;;;2.13;2.03;;;18.20;58.30;;;;;;4991416;28;20046;-12
2022/03/24 10:13:53;;;;;;;2.03;1.92;;;18.20;58.30;;;;;;4998250;28;20089;-13
2022/03/24 10:16:34;;;;;;;2.10;2.00;;;18.30;58.20;;;;;;4981133;28;20133;-13
2022/03/24 10:19:03;;;;;;;1.80;1.70;;;18.30;58.20;;;;;;4978896;28;20371;-13
2022/03/24 10:21:30;;;;;;;1.90;1.80;;;18.30;58.10;;;;;;4991280;28;20570;-13
2022/03/24 10:24:05;;;;;;;2.47;2.28;;;18.30;58.10;;;;;;4997926;28;20046;-13
2022/03/24 10:26:43;;;;;;;2.10;2.00;;;18.30;58.00;;;;;;4994013;28;20050;-14
2022/03/24 10:29:10;;;;;;;2.20;2.10;;;18.40;58.10;;;;;;4980298;28;20055;-13
2022/03/24 10:31:36;;;;;;;1.85;1.75;;;18.40;58.00;;;;;;4979703;28;20046;-13
2022/03/24 10:34:03;;;;;;;2.20;2.10;;;18.40;58.10;;;;;;4987715;28;20070;-14
2022/03/24 10:36:28;;;;;;;2.17;1.98;;;18.40;58.00;;;;;;4998405;28;20071;-14
2022/03/24 10:38:56;;;;;;;2.35;1.70;;;18.40;58.00;;;;;;4997276;28;20108;-13
2022/03/24 10:41:25;;;;;;;1.90;1.80;;;18.40;57.90;;;;;;4978506;28;20054;-14
2022/03/24 10:43:52;;;;;;;1.80;1.70;;;18.40;57.90;;;;;;4979280;28;20047;-14
2022/03/24 10:46:19;;;;;;;1.85;1.75;;;18.40;57.80;;;;;;4989775;28;20424;-15
2022/03/24 10:48:47;;;;;;;1.92;1.83;;;18.40;57.90;;;;;;4980414;28;20080;-13
2022/03/24 10:51:24;;;;;;;1.88;1.77;;;18.50;57.90;;;;;;4990188;28;20050;-12
2022/03/24 10:53:50;;;;;;;1.88;1.77;;;18.50;57.80;;;;;;4978157;28;20500;-13
2022/03/24 10:56:21;;;;;;;1.88;1.77;;;18.50;57.80;;;;;;4983888;28;20046;-13
2022/03/24 10:58:59;;;;;;;1.85;1.75;;;18.50;57.70;;;;;;4996411;28;20100;-14
2022/03/24 11:01:27;;;;;;;2.00;1.90;;;18.50;57.70;;;;;;4986862;28;20054;-13
2022/03/24 11:03:53;;;;;;;1.80;1.70;;;18.50;57.70;;;;;;4984024;28;20496;-14
2022/03/24 11:06:19;;;;;;;2.20;2.10;;;18.50;57.70;;;;;;4978474;28;20050;-14
2022/03/24 11:08:51;;;;;;;2.13;2.03;;;18.60;57.60;;;;;;4995021;28;20054;-14
2022/03/24 11:11:17;;;;;;;1.40;1.40;;;18.60;57.60;;;;;;4994103;28;20042;-13
2022/03/24 11:13:59;;;;;;;1.90;1.80;;;18.60;57.60;;;;;;4988640;28;20108;-14
2022/03/24 11:16:29;;;;;;;1.80;1.70;;;18.60;57.60;;;;;;4991834;28;20048;-14
2022/03/24 11:18:56;;;;;;;1.85;1.75;;;18.60;57.60;;;;;;4996052;28;20050;-14
2022/03/24 11:21:43;;;;;;;1.90;1.80;;;18.60;57.60;;;;;;4985737;28;20149;-13
2022/03/24 11:24:08;;;;;;;1.54;1.39;;;18.60;57.50;;;;;;4647095;28;10001091;-14
2022/03/24 11:26:35;;;;;;;1.90;1.80;;;18.70;57.50;;;;;;4992476;28;20221;-14
2022/03/24 11:29:02;;;;;;;1.77;1.67;;;18.70;57.50;;;;;;4994461;28;20492;-13
2022/03/24 11:31:28;;;;;;;2.47;2.30;;;18.70;57.40;;;;;;4991977;28;20046;-13
2022/03/24 11:33:54;;;;;;;2.17;2.00;;;18.70;57.50;;;;;;4992435;28;20053;-14
2022/03/24 11:36:23;;;;;;;2.00;1.90;;;18.80;57.40;;;;;;4996635;28;20042;-14
2022/03/24 11:38:51;;;;;;;1.90;1.77;;;18.80;57.40;;;;;;4994246;28;20062;-14
2022/03/24 11:41:30;;;;;;;2.42;2.05;;;18.80;57.50;;;;;;4995743;28;20049;-13
2022/03/24 11:43:58;;;;;;;2.75;2.55;;;18.80;57.60;;;;;;4984929;28;20050;-14
2022/03/24 11:46:28;;;;;;;2.20;1.88;;;18.80;57.80;;;;;;4995559;28;20042;-13
2022/03/24 11:49:12;;;;;;;2.42;2.22;;;18.80;57.70;;;;;;4993324;28;20077;-13
2022/03/24 11:51:37;;;;;;;2.90;2.60;;;18.80;57.70;;;;;;4994751;28;20044;-13
2022/03/24 11:54:05;;;;;;;2.47;2.17;;;18.80;57.80;;;;;;4994651;28;20046;-13
2022/03/24 11:56:31;;;;;;;2.10;2.00;;;18.90;57.80;;;;;;4645312;28;10000004;-14
2022/03/24 11:58:57;;;;;;;2.33;2.13;;;18.90;57.70;;;;;;4993654;28;20054;-14
2022/03/24 12:01:24;;;;;;;2.78;2.40;;;18.90;57.70;;;;;;4992958;28;20114;-13
2022/03/24 12:03:56;;;;;;;3.38;2.10;;;18.90;57.70;;;;;;4999057;28;20060;-13
2022/03/24 12:06:43;;;;;;;2.47;2.28;;;18.90;57.70;;;;;;4994578;28;20058;-13
2022/03/24 12:09:54;;;;;;;2.40;2.20;;;18.90;57.70;;;;;;4995052;28;20046;-13
2022/03/24 12:12:20;;;;;;;2.20;2.10;;;18.90;57.80;;;;;;4999844;28;20038;-13
2022/03/24 12:14:45;;;;;;;2.35;2.15;;;18.90;57.70;;;;;;4992770;28;20053;-13
2022/03/24 12:17:19;;;;;;;2.80;2.55;;;18.90;57.90;;;;;;5004422;28;20499;-13
2022/03/24 12:19:55;;;;;;;2.50;2.30;;;18.90;57.90;;;;;;4980486;28;20058;-13
2022/03/24 12:22:28;;;;;;;3.03;2.05;;;18.90;58.00;;;;;;5000236;28;20049;-13
2022/03/24 12:25:00;;;;;;;2.33;2.13;;;18.90;57.90;;;;;;4993595;28;20129;-14
2022/03/24 12:27:33;;;;;;;2.70;2.17;;;18.90;58.00;;;;;;4991427;28;20531;-13
2022/03/24 12:30:41;;;;;;;2.55;2.28;;;18.90;58.00;;;;;;5001462;28;20140;-13
2022/03/24 12:33:14;;;;;;;2.45;2.08;;;18.90;58.00;;;;;;4987362;28;20065;-13
2022/03/24 12:35:49;;;;;;;2.22;2.08;;;18.90;58.00;;;;;;4994243;28;20060;-13
2022/03/24 12:38:34;;;;;;;2.97;2.22;;;19.00;58.00;;;;;;4994361;28;20050;-14
2022/03/24 12:41:06;;;;;;;2.28;2.08;;;19.00;58.00;;;;;;4988018;28;20047;-12
2022/03/24 12:43:43;;;;;;;2.28;2.08;;;19.00;58.00;;;;;;4977303;28;20058;-13
2022/03/24 12:46:34;;;;;;;2.53;2.35;;;19.00;57.90;;;;;;4993142;28;20065;-13
2022/03/24 12:49:06;;;;;;;1.92;1.83;;;19.00;58.00;;;;;;4992778;28;20050;-13